Time;durP1;ratioP1;P1;durP2;ratioP2;P2;SDS_P1;SDS_P2;PMS_P1;PMS_P2;Temp;Humidity;BMP_temperature;BMP_pressure;BME280_temperature;BME280_humidity;BME280_pressure;Samples;Min_cycle;Max_cycle;Signal;HPM_P1;HPM_P2
2023/08/21 00:02:01;;;;;;;1.38;0.88;;;18.50;53.70;;;;;;5058887;28;20510;-79
2023/08/21 00:04:29;;;;;;;3.35;1.10;;;18.60;53.80;;;;;;5074201;28;20025;-78
2023/08/21 00:06:56;;;;;;;1.20;0.90;;;18.60;52.40;;;;;;5074290;28;20020;-77
2023/08/21 00:09:24;;;;;;;6.72;1.25;;;18.70;53.20;;;;;;5074101;28;20025;-78
2023/08/21 00:11:51;;;;;;;1.45;0.90;;;18.80;52.80;;;;;;5056410;28;20116;-80
2023/08/21 00:14:18;;;;;;;3.25;1.25;;;18.90;52.60;;;;;;5053980;28;20488;-78
2023/08/21 00:16:46;;;;;;;3.05;0.98;;;19.20;52.50;;;;;;5053850;28;20036;-77
2023/08/21 00:19:13;;;;;;;2.97;1.10;;;19.40;52.10;;;;;;5048836;28;20047;-77
2023/08/21 00:21:40;;;;;;;2.20;0.90;;;19.50;51.60;;;;;;5053879;28;20213;-76
2023/08/21 00:24:08;;;;;;;1.00;0.60;;;19.70;50.20;;;;;;5054103;28;20017;-79
2023/08/21 00:26:35;;;;;;;4.15;0.88;;;19.90;49.80;;;;;;5055137;28;20029;-80
2023/08/21 00:29:02;;;;;;;2.17;0.65;;;20.20;48.20;;;;;;5053647;28;20025;-81
2023/08/21 00:31:30;;;;;;;0.90;0.60;;;20.10;48.10;;;;;;5053403;28;20171;-79
2023/08/21 00:33:58;;;;;;;1.42;0.80;;;20.20;48.40;;;;;;5053668;28;20369;-78
2023/08/21 00:36:26;;;;;;;0.95;0.65;;;20.40;46.70;;;;;;5046735;28;20103;-82
2023/08/21 00:38:53;;;;;;;1.25;0.60;;;20.40;46.50;;;;;;5057385;28;20462;-79
2023/08/21 00:41:20;;;;;;;1.00;0.60;;;20.30;46.70;;;;;;5073640;28;20028;-77
2023/08/21 00:43:48;;;;;;;1.25;0.60;;;20.30;47.00;;;;;;5053986;28;20096;-78
2023/08/21 00:46:16;;;;;;;1.77;0.60;;;20.20;47.30;;;;;;5053362;28;20103;-79
2023/08/21 00:48:44;;;;;;;2.78;1.10;;;20.30;47.00;;;;;;5053521;28;20021;-76
2023/08/21 00:51:15;;;;;;;1.38;0.70;;;20.40;47.10;;;;;;5053511;28;20025;-76
2023/08/21 00:53:43;;;;;;;3.33;0.95;;;20.70;45.80;;;;;;5049643;28;20060;-78
2023/08/21 00:56:10;;;;;;;1.38;0.73;;;20.80;45.90;;;;;;5053909;28;20033;-76
2023/08/21 00:58:38;;;;;;;1.60;0.70;;;20.80;46.20;;;;;;5047085;28;20056;-76
2023/08/21 01:01:05;;;;;;;1.48;0.70;;;20.80;45.50;;;;;;5033121;28;20125;-77
2023/08/21 01:03:33;;;;;;;2.63;1.00;;;20.60;46.10;;;;;;5033164;28;20369;-78
2023/08/21 01:06:00;;;;;;;2.35;1.00;;;20.70;46.50;;;;;;5033184;28;20054;-80
2023/08/21 01:09:08;;;;;;;1.40;0.70;;;20.70;46.50;;;;;;5033077;28;20021;-79
2023/08/21 01:11:40;;;;;;;1.33;0.80;;;21.00;45.40;;;;;;5039715;28;20037;-77
2023/08/21 01:14:24;;;;;;;1.67;0.90;;;21.40;45.30;;;;;;5053065;28;20104;-81
2023/08/21 01:16:56;;;;;;;0.82;0.60;;;21.60;44.40;;;;;;5052821;28;20040;-79
2023/08/21 01:19:42;;;;;;;1.58;0.70;;;21.60;44.40;;;;;;5052512;28;20060;-80
2023/08/21 01:22:09;;;;;;;;;;;21.50;44.50;;;;;;5065302;28;20024;-77
2023/08/21 01:24:37;;;;;;;1.13;0.80;;;21.50;45.40;;;;;;5069519;28;20239;-82
2023/08/21 01:27:04;;;;;;;0.95;0.60;;;21.70;45.20;;;;;;5065971;28;20568;-77
2023/08/21 01:29:33;;;;;;;1.13;0.75;;;21.80;43.00;;;;;;5064029;28;20486;-77
2023/08/21 01:32:38;;;;;;;2.55;0.90;;;22.00;43.40;;;;;;5053060;28;20107;-78
2023/08/21 01:35:07;;;;;;;0.90;0.65;;;22.00;42.70;;;;;;5050795;28;20510;-78
2023/08/21 01:37:36;;;;;;;2.42;0.75;;;22.10;43.10;;;;;;5052445;28;20029;-78
2023/08/21 01:40:03;;;;;;;1.58;0.77;;;22.00;42.80;;;;;;5052404;28;20036;-77
2023/08/21 01:42:31;;;;;;;3.05;0.68;;;21.80;42.90;;;;;;5052604;28;20080;-78
2023/08/21 01:44:58;;;;;;;0.63;0.63;;;21.70;43.60;;;;;;5052526;28;20517;-79
2023/08/21 01:47:26;;;;;;;1.63;0.80;;;21.70;43.80;;;;;;5053430;28;20384;-77
2023/08/21 01:49:53;;;;;;;0.77;0.55;;;21.60;43.30;;;;;;5059140;28;20120;-77
2023/08/21 01:52:20;;;;;;;1.70;0.68;;;21.50;43.50;;;;;;5059109;28;20502;-78
2023/08/21 01:54:49;;;;;;;0.98;0.80;;;21.50;43.30;;;;;;5057425;28;20430;-78
2023/08/21 01:57:17;;;;;;;0.77;0.70;;;21.50;43.10;;;;;;5059110;28;20099;-78
2023/08/21 01:59:44;;;;;;;2.03;0.77;;;21.60;42.60;;;;;;5058935;28;20036;-77
2023/08/21 02:02:12;;;;;;;2.20;0.80;;;21.60;42.80;;;;;;5058958;28;20024;-77
2023/08/21 02:04:39;;;;;;;0.88;0.80;;;21.70;43.00;;;;;;5059057;28;20029;-80
2023/08/21 02:07:07;;;;;;;0.98;0.70;;;21.70;42.70;;;;;;5059163;28;20013;-77
2023/08/21 02:09:34;;;;;;;3.15;0.80;;;21.60;42.20;;;;;;5058964;28;20324;-77
2023/08/21 02:12:02;;;;;;;3.30;0.80;;;21.70;42.80;;;;;;5058566;28;20383;-77
2023/08/21 02:14:29;;;;;;;1.80;0.80;;;21.80;42.30;;;;;;5058573;28;20021;-76
2023/08/21 02:16:56;;;;;;;2.67;0.80;;;21.80;42.70;;;;;;5058511;28;20096;-78
2023/08/21 02:19:24;;;;;;;3.47;0.98;;;21.80;41.00;;;;;;5058078;28;20553;-77
2023/08/21 02:21:51;;;;;;;2.13;0.70;;;21.80;41.70;;;;;;5058473;28;20124;-78
2023/08/21 02:24:19;;;;;;;1.90;0.80;;;21.80;41.10;;;;;;5058527;28;20074;-77
2023/08/21 02:26:46;;;;;;;2.05;0.82;;;21.80;41.10;;;;;;5058624;28;20029;-79
2023/08/21 02:29:13;;;;;;;1.90;0.73;;;21.80;41.00;;;;;;5058610;28;20071;-78
2023/08/21 02:31:41;;;;;;;0.60;0.60;;;21.70;41.20;;;;;;5058602;28;20029;-77
2023/08/21 02:34:08;;;;;;;3.38;0.90;;;21.60;41.30;;;;;;5058858;28;20021;-78
2023/08/21 02:36:35;;;;;;;1.70;0.77;;;21.50;43.20;;;;;;5058644;28;20375;-77
2023/08/21 02:39:03;;;;;;;3.35;0.85;;;21.50;43.40;;;;;;5058736;28;20472;-78
2023/08/21 02:41:31;;;;;;;4.45;0.80;;;21.50;44.50;;;;;;5058765;28;20028;-78
2023/08/21 02:43:58;;;;;;;3.65;1.00;;;21.50;42.80;;;;;;5058872;28;20045;-78
2023/08/21 02:46:25;;;;;;;3.22;0.93;;;21.50;44.60;;;;;;5058611;28;20032;-78
2023/08/21 02:48:53;;;;;;;1.25;0.80;;;21.50;43.70;;;;;;5058748;28;20021;-78
2023/08/21 02:51:20;;;;;;;1.08;0.80;;;21.50;44.30;;;;;;5058817;28;20553;-78
2023/08/21 02:53:47;;;;;;;1.77;0.70;;;21.30;42.60;;;;;;5058537;28;20467;-78
2023/08/21 02:56:15;;;;;;;0.55;0.55;;;21.20;43.10;;;;;;5058615;28;20479;-78
2023/08/21 02:58:42;;;;;;;1.20;0.88;;;21.10;42.80;;;;;;5058315;28;20040;-78
2023/08/21 03:01:09;;;;;;;1.85;0.90;;;21.00;43.10;;;;;;5055453;28;20029;-78
2023/08/21 03:03:37;;;;;;;2.15;0.80;;;21.10;43.90;;;;;;5055144;28;20025;-80
2023/08/21 03:06:04;;;;;;;2.55;0.90;;;21.20;43.70;;;;;;5055748;28;20061;-77
2023/08/21 03:08:32;;;;;;;1.55;0.80;;;21.20;44.60;;;;;;5056036;28;20028;-77
2023/08/21 03:10:59;;;;;;;0.90;0.68;;;21.20;43.60;;;;;;5055976;28;20029;-78
2023/08/21 03:13:27;;;;;;;3.00;1.00;;;21.10;43.60;;;;;;5055549;28;20102;-79
2023/08/21 03:15:54;;;;;;;1.17;0.70;;;21.10;43.50;;;;;;5055756;28;20020;-78
2023/08/21 03:18:21;;;;;;;0.70;0.70;;;21.10;43.30;;;;;;5055739;28;20174;-79
2023/08/21 03:20:50;;;;;;;1.13;0.80;;;21.00;43.70;;;;;;5055476;28;20032;-78
2023/08/21 03:23:17;;;;;;;1.60;0.80;;;21.00;43.80;;;;;;5055551;28;20017;-77
2023/08/21 03:25:45;;;;;;;1.10;0.70;;;21.00;43.90;;;;;;5055064;28;20029;-80
2023/08/21 03:28:12;;;;;;;0.85;0.60;;;21.10;44.10;;;;;;5055018;28;20120;-79
2023/08/21 03:30:42;;;;;;;1.70;0.70;;;21.20;44.20;;;;;;5054821;28;20021;-79
2023/08/21 03:33:09;;;;;;;4.22;1.00;;;21.20;43.50;;;;;;5054977;28;20589;-81
2023/08/21 03:35:37;;;;;;;1.17;0.73;;;21.30;44.00;;;;;;5054162;28;20021;-78
2023/08/21 03:38:04;;;;;;;3.50;0.95;;;21.40;44.70;;;;;;5054349;28;20017;-78
2023/08/21 03:40:32;;;;;;;1.15;0.80;;;21.60;44.40;;;;;;5054064;28;20475;-78
2023/08/21 03:42:59;;;;;;;0.60;0.60;;;21.60;44.30;;;;;;5054533;28;20104;-79
2023/08/21 03:45:26;;;;;;;0.75;0.73;;;21.60;43.70;;;;;;5054347;28;20507;-78
2023/08/21 03:47:54;;;;;;;2.00;0.88;;;21.50;43.40;;;;;;5054443;28;20032;-77
2023/08/21 03:50:21;;;;;;;3.92;1.02;;;21.50;43.90;;;;;;5053783;28;20024;-78
2023/08/21 03:52:49;;;;;;;2.70;0.90;;;21.60;44.30;;;;;;5054416;28;20498;-78
2023/08/21 03:55:16;;;;;;;2.65;1.25;;;21.70;44.20;;;;;;5054511;28;20538;-79
2023/08/21 03:57:44;;;;;;;3.60;0.93;;;21.80;44.80;;;;;;5054118;28;20029;-78
2023/08/21 04:00:11;;;;;;;4.00;1.13;;;21.80;46.20;;;;;;5054083;28;20128;-77
2023/08/21 04:02:39;;;;;;;2.13;0.80;;;21.90;47.00;;;;;;5054427;28;20021;-78
2023/08/21 04:05:06;;;;;;;2.63;1.20;;;21.90;47.20;;;;;;5054371;28;20025;-77
2023/08/21 04:07:34;;;;;;;2.78;0.95;;;22.00;47.10;;;;;;5054221;28;20032;-77
2023/08/21 04:10:01;;;;;;;7.57;1.20;;;22.00;46.90;;;;;;5054175;28;20051;-77
2023/08/21 04:12:29;;;;;;;4.13;1.02;;;22.00;46.60;;;;;;5053885;28;20475;-77
2023/08/21 04:14:56;;;;;;;1.98;0.90;;;22.00;47.10;;;;;;5054127;28;20021;-78
2023/08/21 04:17:24;;;;;;;4.80;1.38;;;22.00;47.10;;;;;;5053999;28;20056;-78
2023/08/21 04:19:52;;;;;;;1.80;0.90;;;22.00;47.10;;;;;;5053705;28;20111;-76
2023/08/21 04:22:19;;;;;;;2.50;1.17;;;22.10;46.60;;;;;;5053951;28;20471;-77
2023/08/21 04:24:47;;;;;;;2.40;1.00;;;22.10;47.10;;;;;;5053928;28;20115;-79
2023/08/21 04:27:14;;;;;;;2.47;1.08;;;22.00;47.70;;;;;;5060355;28;20029;-77
2023/08/21 04:29:41;;;;;;;2.67;0.98;;;22.00;48.00;;;;;;5062972;28;20028;-78
2023/08/21 04:32:09;;;;;;;1.98;1.10;;;22.00;47.80;;;;;;5066750;28;20036;-78
2023/08/21 04:34:36;;;;;;;6.82;1.05;;;22.00;47.80;;;;;;5054596;28;20021;-77
2023/08/21 04:37:04;;;;;;;3.40;1.40;;;22.00;48.30;;;;;;5060878;28;20036;-78
2023/08/21 04:39:32;;;;;;;3.30;2.20;;;22.00;48.50;;;;;;5068766;28;20049;-79
2023/08/21 04:41:59;;;;;;;5.35;1.60;;;22.00;48.30;;;;;;5061690;28;20078;-78
2023/08/21 04:44:27;;;;;;;3.72;1.90;;;22.00;48.90;;;;;;5053947;28;20032;-81
2023/08/21 04:46:54;;;;;;;7.10;1.40;;;22.00;49.30;;;;;;5064702;28;20036;-81
2023/08/21 04:49:21;;;;;;;3.17;1.40;;;22.00;48.90;;;;;;5073481;28;20055;-79
2023/08/21 04:51:49;;;;;;;2.08;1.38;;;22.10;48.80;;;;;;5073132;28;20031;-78
2023/08/21 04:54:16;;;;;;;2.67;1.40;;;22.10;49.00;;;;;;5063175;28;20025;-79
2023/08/21 04:56:44;;;;;;;2.55;1.30;;;22.10;49.20;;;;;;5054268;28;20430;-78
2023/08/21 04:59:11;;;;;;;4.72;1.30;;;22.10;48.70;;;;;;5054840;28;20029;-78
2023/08/21 05:01:38;;;;;;;4.50;1.48;;;22.10;48.70;;;;;;5062529;28;20434;-80
2023/08/21 05:04:06;;;;;;;3.42;1.13;;;22.10;48.80;;;;;;5072423;28;20024;-82
2023/08/21 05:06:33;;;;;;;3.03;1.38;;;22.10;48.20;;;;;;5073574;28;20198;-79
2023/08/21 05:09:00;;;;;;;2.20;1.20;;;22.10;48.50;;;;;;5064483;28;20023;-78
2023/08/21 05:11:28;;;;;;;1.63;0.85;;;22.00;49.10;;;;;;5072918;28;20111;-79
2023/08/21 05:13:55;;;;;;;3.67;1.20;;;21.90;49.30;;;;;;5071020;28;20032;-79
2023/08/21 05:16:22;;;;;;;2.70;1.20;;;21.80;49.70;;;;;;5065501;28;20021;-79
2023/08/21 05:18:50;;;;;;;3.78;1.05;;;21.80;49.50;;;;;;5055158;28;20110;-79
2023/08/21 05:21:17;;;;;;;2.85;1.08;;;21.80;49.30;;;;;;5055948;28;20058;-76
2023/08/21 05:23:44;;;;;;;3.58;1.10;;;21.70;49.10;;;;;;5062222;28;20552;-77
2023/08/21 05:26:12;;;;;;;1.70;1.00;;;21.50;49.50;;;;;;5052806;28;20494;-77
2023/08/21 05:28:39;;;;;;;3.47;1.02;;;21.50;48.90;;;;;;5053506;28;20021;-78
2023/08/21 05:31:06;;;;;;;3.50;1.10;;;21.50;48.40;;;;;;5060359;28;20425;-78
2023/08/21 05:33:34;;;;;;;3.22;1.10;;;21.40;49.20;;;;;;5065347;28;20067;-75
2023/08/21 05:36:01;;;;;;;2.80;1.00;;;21.30;49.00;;;;;;5052938;28;20112;-80
2023/08/21 05:38:29;;;;;;;2.15;1.10;;;21.20;49.10;;;;;;5063559;28;20108;-76
2023/08/21 05:40:56;;;;;;;1.63;0.93;;;21.20;48.90;;;;;;5072596;28;20028;-77
2023/08/21 05:43:24;;;;;;;0.90;0.80;;;21.10;49.50;;;;;;5071229;28;20516;-77
2023/08/21 05:45:51;;;;;;;4.05;1.00;;;21.10;50.10;;;;;;5071421;28;20503;-79
2023/08/21 05:48:18;;;;;;;2.45;0.90;;;21.10;50.60;;;;;;5072866;28;20028;-77
2023/08/21 05:50:50;;;;;;;2.50;0.93;;;21.10;50.10;;;;;;5064166;28;20029;-78
2023/08/21 05:53:18;;;;;;;2.53;1.05;;;21.00;51.00;;;;;;5061661;28;20017;-80
2023/08/21 05:55:45;;;;;;;3.92;1.13;;;21.00;50.70;;;;;;5072514;28;20445;-79
2023/08/21 05:58:13;;;;;;;2.28;0.90;;;20.90;50.90;;;;;;5062715;28;20484;-79
2023/08/21 06:00:40;;;;;;;2.10;0.80;;;20.80;51.20;;;;;;5053610;28;20481;-79
2023/08/21 06:03:08;;;;;;;1.25;0.85;;;20.80;51.00;;;;;;5072675;28;20017;-79
2023/08/21 06:05:35;;;;;;;1.13;0.80;;;20.70;51.20;;;;;;5072540;28;20510;-78
2023/08/21 06:08:02;;;;;;;2.00;0.90;;;20.70;52.00;;;;;;5068834;28;20402;-79
2023/08/21 06:10:31;;;;;;;1.17;0.80;;;20.60;52.20;;;;;;5070526;28;20635;-79
2023/08/21 06:12:58;;;;;;;1.92;0.90;;;20.60;52.40;;;;;;5072294;28;20025;-79
2023/08/21 06:15:26;;;;;;;4.72;1.10;;;20.50;53.00;;;;;;5068825;28;20399;-80
2023/08/21 06:17:53;;;;;;;1.42;0.73;;;20.40;52.90;;;;;;5056504;28;20031;-78
2023/08/21 06:20:21;;;;;;;1.60;0.93;;;20.30;53.50;;;;;;5063456;28;20059;-79
2023/08/21 06:22:48;;;;;;;3.08;1.20;;;20.30;53.70;;;;;;5054461;28;20365;-79
2023/08/21 06:25:16;;;;;;;2.17;0.90;;;20.20;53.50;;;;;;5058130;28;20064;-79
2023/08/21 06:27:43;;;;;;;2.55;1.10;;;20.10;53.90;;;;;;5066250;28;20028;-80
2023/08/21 06:30:11;;;;;;;2.00;0.93;;;20.10;54.00;;;;;;5056999;28;20029;-80
2023/08/21 06:32:39;;;;;;;2.42;0.98;;;20.10;54.10;;;;;;5061660;28;20027;-80
2023/08/21 06:35:06;;;;;;;2.70;0.90;;;20.00;54.40;;;;;;5075001;28;20107;-78
2023/08/21 06:37:34;;;;;;;2.38;0.98;;;20.00;54.50;;;;;;5066672;28;20021;-78
2023/08/21 06:40:01;;;;;;;2.88;0.80;;;19.90;54.60;;;;;;5057081;28;20052;-78
2023/08/21 06:42:29;;;;;;;1.52;0.80;;;19.90;54.90;;;;;;5056923;28;20032;-78
2023/08/21 06:44:56;;;;;;;2.72;0.88;;;19.80;55.20;;;;;;5067897;28;20051;-78
2023/08/21 06:47:23;;;;;;;1.38;0.90;;;19.70;55.50;;;;;;5073269;28;20033;-78
2023/08/21 06:49:51;;;;;;;3.17;1.15;;;19.70;55.60;;;;;;5065398;28;20021;-77
2023/08/21 06:52:18;;;;;;;2.17;0.80;;;19.70;55.80;;;;;;5075652;28;20051;-79
2023/08/21 06:54:46;;;;;;;2.38;0.80;;;19.70;55.90;;;;;;5056961;28;20028;-78
2023/08/21 06:57:13;;;;;;;4.38;0.85;;;19.60;56.00;;;;;;5075520;28;20375;-77
2023/08/21 06:59:41;;;;;;;2.33;1.00;;;19.50;56.50;;;;;;5073869;28;20032;-78
2023/08/21 07:02:08;;;;;;;1.90;0.80;;;19.50;56.80;;;;;;5066173;28;20025;-77
2023/08/21 07:04:35;;;;;;;3.17;1.05;;;19.50;57.50;;;;;;5075540;28;20055;-78
2023/08/21 07:07:03;;;;;;;2.15;1.10;;;19.50;57.90;;;;;;5091147;27;20030;-77
2023/08/21 07:09:30;;;;;;;2.72;1.00;;;19.40;58.20;;;;;;5062907;28;20391;-77
2023/08/21 07:11:57;;;;;;;3.67;1.20;;;19.30;58.50;;;;;;5055529;28;20499;-79
2023/08/21 07:14:25;;;;;;;2.63;1.10;;;19.30;58.60;;;;;;5065749;28;20532;-78
2023/08/21 07:16:52;;;;;;;1.27;0.90;;;19.30;58.70;;;;;;5075206;28;20387;-79
2023/08/21 07:19:19;;;;;;;2.35;1.02;;;19.20;58.80;;;;;;5068555;28;20029;-77
2023/08/21 07:21:47;;;;;;;1.15;0.80;;;19.20;58.80;;;;;;5070763;28;20032;-78
2023/08/21 07:24:14;;;;;;;2.72;0.80;;;19.10;58.90;;;;;;5055173;28;20044;-80
2023/08/21 07:26:42;;;;;;;1.23;0.80;;;19.10;59.00;;;;;;5054828;28;20029;-78
2023/08/21 07:29:09;;;;;;;3.38;0.98;;;19.10;59.40;;;;;;5071162;28;20021;-78
2023/08/21 07:31:37;;;;;;;2.35;1.30;;;19.10;59.40;;;;;;5074835;28;20025;-78
2023/08/21 07:34:07;;;;;;;4.07;1.40;;;19.00;59.50;;;;;;5055272;28;20567;-81
2023/08/21 07:36:34;;;;;;;1.63;0.98;;;19.00;59.40;;;;;;5055947;28;20021;-77
2023/08/21 07:39:02;;;;;;;4.10;1.13;;;19.00;59.10;;;;;;5054759;28;20040;-79
2023/08/21 07:41:29;;;;;;;3.55;1.20;;;19.00;59.00;;;;;;5054919;28;20369;-78
2023/08/21 07:43:56;;;;;;;3.00;1.40;;;18.90;59.00;;;;;;5054750;28;20466;-81
2023/08/21 07:46:24;;;;;;;2.65;1.20;;;18.90;59.10;;;;;;5054292;28;20392;-78
2023/08/21 07:48:53;;;;;;;3.22;1.40;;;18.90;59.10;;;;;;5061400;28;20025;-78
2023/08/21 07:51:20;;;;;;;2.17;1.20;;;18.80;59.10;;;;;;5055887;28;20120;-77
2023/08/21 07:53:47;;;;;;;4.68;1.40;;;18.80;58.90;;;;;;5058197;28;20032;-77
2023/08/21 07:56:15;;;;;;;2.35;1.13;;;18.70;58.70;;;;;;5072445;28;20052;-78
2023/08/21 07:58:42;;;;;;;2.90;1.40;;;18.70;58.60;;;;;;5072007;28;20095;-78
2023/08/21 08:01:10;;;;;;;2.60;1.10;;;18.70;58.60;;;;;;5072557;28;20041;-79
2023/08/21 08:03:37;;;;;;;1.65;1.08;;;18.60;58.70;;;;;;5071268;28;20463;-80
2023/08/21 08:06:04;;;;;;;3.92;1.40;;;18.60;59.10;;;;;;5071519;28;20063;-79
2023/08/21 08:08:32;;;;;;;2.35;1.27;;;18.60;58.90;;;;;;5071726;28;20029;-81
2023/08/21 08:11:04;;;;;;;1.63;1.02;;;18.50;59.00;;;;;;5070464;28;20029;-79
2023/08/21 08:13:31;;;;;;;2.13;0.90;;;18.50;59.10;;;;;;5072792;28;20029;-83
2023/08/21 08:15:59;;;;;;;1.35;0.90;;;18.40;59.40;;;;;;5074229;28;20123;-78
2023/08/21 08:18:26;;;;;;;2.88;1.10;;;18.40;59.50;;;;;;5073930;28;20028;-78
2023/08/21 08:20:53;;;;;;;3.70;1.60;;;18.30;59.90;;;;;;5074100;28;20025;-78
2023/08/21 08:23:23;;;;;;;4.70;1.27;;;18.30;60.10;;;;;;5074407;28;20070;-78
2023/08/21 08:25:50;;;;;;;5.43;1.55;;;18.30;60.20;;;;;;5074314;28;20082;-78
2023/08/21 08:28:18;;;;;;;2.47;1.35;;;18.30;60.50;;;;;;5073917;28;20016;-77
2023/08/21 08:30:46;;;;;;;3.10;1.58;;;18.30;60.80;;;;;;5072555;28;20351;-77
2023/08/21 08:33:14;;;;;;;2.03;1.48;;;18.20;60.90;;;;;;5073775;28;20320;-78
2023/08/21 08:35:41;;;;;;;4.35;1.52;;;18.20;61.10;;;;;;5066783;28;20391;-78
2023/08/21 08:38:09;;;;;;;2.65;1.50;;;18.20;61.30;;;;;;5052368;28;20371;-80
2023/08/21 08:40:43;;;;;;;4.40;1.85;;;18.20;62.00;;;;;;5060994;28;20108;-81
2023/08/21 08:43:14;;;;;;;1.83;1.48;;;18.20;62.30;;;;;;5063210;28;20021;-80
2023/08/21 08:45:45;;;;;;;4.90;2.00;;;18.20;62.70;;;;;;5054202;28;20033;-80
2023/08/21 08:48:13;;;;;;;4.25;1.92;;;18.20;62.80;;;;;;5052078;28;20108;-79
2023/08/21 08:50:42;;;;;;;4.82;1.63;;;18.20;62.80;;;;;;5062975;28;20091;-80
2023/08/21 08:53:10;;;;;;;2.42;1.65;;;18.20;62.80;;;;;;5058177;28;20046;-79
2023/08/21 08:55:38;;;;;;;4.68;2.15;;;18.20;62.70;;;;;;5065107;28;20025;-79
2023/08/21 08:58:05;;;;;;;5.18;2.58;;;18.10;63.00;;;;;;5060308;28;20025;-80
2023/08/21 09:00:32;;;;;;;4.28;1.50;;;18.10;63.20;;;;;;5060166;28;20111;-78
2023/08/21 09:03:00;;;;;;;2.30;1.58;;;18.00;63.70;;;;;;5053276;28;20051;-81
2023/08/21 09:05:27;;;;;;;2.78;1.60;;;18.00;64.00;;;;;;5054707;28;20025;-79
2023/08/21 09:08:14;;;;;;;3.08;1.63;;;18.00;64.20;;;;;;5051416;28;20036;-79
2023/08/21 09:10:45;;;;;;;4.78;2.00;;;18.00;64.50;;;;;;5060982;28;20032;-79
2023/08/21 09:13:20;;;;;;;4.22;1.70;;;18.00;64.70;;;;;;5073159;28;20039;-79
2023/08/21 09:15:55;;;;;;;5.10;2.00;;;17.90;65.00;;;;;;5059183;28;20041;-79
2023/08/21 09:18:22;;;;;;;6.90;2.20;;;17.90;65.10;;;;;;5051827;28;20044;-79
2023/08/21 09:20:50;;;;;;;5.13;2.33;;;17.90;65.40;;;;;;5053348;28;20071;-79
2023/08/21 09:23:18;;;;;;;5.43;2.35;;;17.90;65.40;;;;;;5071454;28;20120;-79
2023/08/21 09:25:48;;;;;;;8.15;2.88;;;17.90;65.80;;;;;;5071366;28;20063;-78
2023/08/21 09:28:22;;;;;;;4.80;2.40;;;17.80;65.50;;;;;;5059115;28;20537;-77
2023/08/21 09:30:51;;;;;;;5.00;2.40;;;17.90;65.60;;;;;;5052917;28;20072;-78
2023/08/21 09:33:24;;;;;;;3.45;2.10;;;17.80;65.50;;;;;;5053192;28;20460;-78
2023/08/21 09:35:56;;;;;;;2.72;1.77;;;17.80;65.50;;;;;;5054144;28;20037;-78
2023/08/21 09:38:23;;;;;;;2.67;1.83;;;17.80;65.40;;;;;;5049554;28;20082;-79
2023/08/21 09:40:55;;;;;;;4.25;2.10;;;17.80;65.30;;;;;;5052630;28;20036;-78
2023/08/21 09:43:24;;;;;;;3.00;1.50;;;17.80;65.30;;;;;;5055623;28;20024;-78
2023/08/21 09:45:55;;;;;;;2.63;1.33;;;17.80;65.20;;;;;;5072226;28;20033;-78
2023/08/21 09:48:32;;;;;;;3.90;1.95;;;17.80;65.20;;;;;;5057474;28;20017;-80
2023/08/21 09:51:03;;;;;;;5.57;1.85;;;17.80;64.90;;;;;;5054269;28;20032;-79
2023/08/21 09:53:31;;;;;;;4.80;2.63;;;17.70;65.00;;;;;;5052744;28;20025;-80
2023/08/21 09:56:04;;;;;;;3.42;2.20;;;17.70;65.00;;;;;;5053300;28;20082;-79
2023/08/21 09:58:32;;;;;;;7.45;3.03;;;17.60;64.90;;;;;;5056803;28;20475;-79
2023/08/21 10:01:02;;;;;;;6.47;3.72;;;17.70;64.50;;;;;;5057846;28;20047;-79
2023/08/21 10:03:32;;;;;;;4.68;2.63;;;17.60;64.40;;;;;;5054996;28;20468;-78
2023/08/21 10:06:00;;;;;;;7.78;3.03;;;17.60;64.50;;;;;;5073728;28;20063;-79
2023/08/21 10:08:29;;;;;;;5.03;3.53;;;17.60;64.40;;;;;;5056495;28;20043;-79
2023/08/21 10:10:59;;;;;;;3.67;2.08;;;17.50;64.00;;;;;;5058540;28;20028;-79
2023/08/21 10:13:26;;;;;;;3.75;2.05;;;17.50;63.40;;;;;;5062949;28;20044;-79
2023/08/21 10:15:55;;;;;;;2.92;1.95;;;17.50;63.20;;;;;;5066442;28;20069;-80
2023/08/21 10:18:24;;;;;;;7.88;3.28;;;17.50;63.30;;;;;;5055300;28;20495;-78
2023/08/21 10:20:53;;;;;;;3.88;1.55;;;17.40;63.00;;;;;;5058142;28;20052;-79
2023/08/21 10:23:28;;;;;;;5.43;3.75;;;17.40;62.50;;;;;;5067229;28;20025;-78
2023/08/21 10:26:00;;;;;;;12.82;8.60;;;17.50;61.90;;;;;;5061811;28;20032;-79
2023/08/21 10:28:50;;;;;;;5.15;2.83;;;17.40;61.90;;;;;;5055246;28;20506;-80
2023/08/21 10:31:44;;;;;;;2.95;2.13;;;17.40;62.00;;;;;;5057214;28;20354;-79
2023/08/21 10:34:12;;;;;;;8.20;4.25;;;17.40;62.00;;;;;;5061145;28;20029;-78
2023/08/21 10:36:43;;;;;;;5.70;3.80;;;17.40;61.80;;;;;;5066233;28;20041;-79
2023/08/21 10:39:23;;;;;;;4.10;3.13;;;17.30;61.90;;;;;;5053407;28;20021;-80
2023/08/21 10:42:09;;;;;;;11.52;8.20;;;17.30;62.10;;;;;;5057782;28;20040;-78
2023/08/21 10:44:45;;;;;;;10.05;8.15;;;17.30;62.80;;;;;;5064623;28;20033;-82
2023/08/21 10:47:12;;;;;;;;;;;17.30;62.30;;;;;;5071444;28;20025;-79
2023/08/21 10:49:39;;;;;;;4.95;2.83;;;17.30;62.10;;;;;;5055680;28;19950;-80
2023/08/21 10:52:09;;;;;;;16.38;10.48;;;17.30;61.60;;;;;;5056346;28;20043;-78
2023/08/21 10:54:47;;;;;;;5.50;3.97;;;17.30;62.20;;;;;;5056538;28;20104;-80
2023/08/21 10:57:16;;;;;;;5.72;3.58;;;17.30;62.60;;;;;;5055273;28;20092;-80
2023/08/21 11:00:00;;;;;;;5.15;3.42;;;17.20;62.90;;;;;;5056033;28;20033;-79
2023/08/21 11:02:30;;;;;;;4.90;2.40;;;17.20;63.20;;;;;;5056773;28;20039;-78
2023/08/21 11:04:59;;;;;;;3.92;1.77;;;17.20;63.00;;;;;;5056484;28;20435;-79
2023/08/21 11:07:27;;;;;;;3.97;2.38;;;17.10;63.10;;;;;;5054124;28;20523;-79
2023/08/21 11:09:54;;;;;;;6.22;2.55;;;17.10;63.30;;;;;;5055022;28;20040;-81
2023/08/21 11:12:24;;;;;;;4.82;2.00;;;17.10;63.10;;;;;;5056318;28;20463;-81
2023/08/21 11:14:51;;;;;;;4.43;2.30;;;17.00;62.90;;;;;;5055593;28;20048;-82
2023/08/21 11:17:19;;;;;;;3.72;1.98;;;17.00;63.20;;;;;;5054436;28;20067;-80
2023/08/21 11:19:48;;;;;;;4.88;2.33;;;16.90;63.70;;;;;;5055085;28;20053;-80
2023/08/21 11:22:15;;;;;;;6.10;2.78;;;16.90;64.30;;;;;;5054816;28;20064;-84
2023/08/21 11:24:47;;;;;;;5.03;2.78;;;16.90;64.20;;;;;;5055800;28;20017;-80
2023/08/21 11:27:19;;;;;;;4.85;2.20;;;16.80;64.00;;;;;;5054249;28;20091;-81
2023/08/21 11:29:50;;;;;;;3.10;1.90;;;16.80;64.10;;;;;;5054970;28;20025;-80
2023/08/21 11:32:23;;;;;;;4.07;1.90;;;16.70;64.40;;;;;;5055805;28;20538;-80
2023/08/21 11:34:54;;;;;;;3.92;1.83;;;16.70;65.10;;;;;;5055664;28;20051;-80
2023/08/21 11:37:30;;;;;;;5.18;2.10;;;16.70;65.20;;;;;;5053554;28;20383;-82
2023/08/21 11:39:59;;;;;;;4.63;2.50;;;16.60;65.20;;;;;;5054804;28;20349;-78
2023/08/21 11:42:34;;;;;;;4.68;2.30;;;16.60;65.00;;;;;;5054926;28;20029;-83
2023/08/21 11:45:02;;;;;;;4.55;2.63;;;16.60;64.80;;;;;;5054853;28;20609;-81
2023/08/21 11:47:36;;;;;;;3.30;2.38;;;16.50;65.00;;;;;;5053645;28;20104;-79
2023/08/21 11:50:09;;;;;;;4.35;1.77;;;16.40;65.50;;;;;;5054977;28;20033;-79
2023/08/21 11:52:43;;;;;;;3.70;1.90;;;16.30;65.60;;;;;;5054688;28;20104;-79
2023/08/21 11:55:11;;;;;;;4.13;2.15;;;16.30;66.10;;;;;;5055049;28;20025;-81
2023/08/21 11:57:53;;;;;;;2.47;1.60;;;16.30;66.10;;;;;;5052908;28;20053;-79
2023/08/21 12:00:27;;;;;;;2.47;1.40;;;16.30;66.50;;;;;;5054995;28;20029;-79
2023/08/21 12:03:00;;;;;;;3.75;1.63;;;16.20;66.60;;;;;;5054597;28;20025;-79
2023/08/21 12:05:28;;;;;;;5.05;2.08;;;16.20;66.40;;;;;;5056015;28;20043;-83
2023/08/21 12:07:56;;;;;;;6.30;3.60;;;16.20;66.50;;;;;;5053234;28;20476;-82
2023/08/21 12:10:28;;;;;;;5.97;2.55;;;16.10;66.30;;;;;;5055111;28;20586;-78
2023/08/21 12:12:56;;;;;;;3.45;2.20;;;16.00;66.30;;;;;;5054279;28;20033;-83
2023/08/21 12:15:24;;;;;;;6.35;2.28;;;16.10;66.90;;;;;;5054097;28;20021;-81
2023/08/21 12:17:52;;;;;;;3.90;1.90;;;16.20;66.70;;;;;;5052418;28;20031;-79
2023/08/21 12:20:19;;;;;;;3.33;1.80;;;16.20;66.40;;;;;;5054069;28;20053;-80
2023/08/21 12:22:46;;;;;;;5.78;1.92;;;16.20;66.30;;;;;;5054218;28;20024;-82
2023/08/21 12:25:16;;;;;;;2.30;1.50;;;16.30;65.80;;;;;;5054333;28;20387;-82
2023/08/21 12:27:43;;;;;;;3.08;1.60;;;16.30;65.40;;;;;;5050972;28;20025;-80
2023/08/21 12:30:11;;;;;;;3.78;1.63;;;16.30;65.20;;;;;;5053706;28;20025;-80
2023/08/21 12:32:40;;;;;;;2.85;1.63;;;16.30;65.10;;;;;;5052604;28;20132;-82
2023/08/21 12:35:11;;;;;;;2.33;1.38;;;16.30;65.30;;;;;;5069295;28;20075;-79
2023/08/21 12:37:39;;;;;;;2.80;1.40;;;16.20;65.40;;;;;;5051802;28;20467;-78
2023/08/21 12:40:08;;;;;;;2.30;1.50;;;16.20;65.60;;;;;;5053992;28;20025;-79
2023/08/21 12:42:35;;;;;;;2.50;1.48;;;16.20;65.70;;;;;;5052735;28;20050;-79
2023/08/21 12:45:02;;;;;;;4.07;1.80;;;16.20;66.00;;;;;;5053759;28;20486;-79
2023/08/21 12:47:30;;;;;;;4.25;1.88;;;16.00;66.50;;;;;;5051726;28;20025;-79
2023/08/21 12:49:57;;;;;;;3.42;2.10;;;16.00;67.20;;;;;;5054018;28;20492;-80
2023/08/21 12:52:25;;;;;;;3.75;2.20;;;16.00;67.70;;;;;;5053865;28;20021;-79
2023/08/21 12:54:52;;;;;;;1.65;1.50;;;16.10;67.80;;;;;;5052503;28;20035;-79
2023/08/21 12:57:19;;;;;;;3.20;1.50;;;16.10;67.50;;;;;;5050230;28;20025;-79